Bon Homme, Mississippi
Current Conditions -  °F | °C
As of 2:53 PM on Wednesday 17 Dec 2014 (Local Time) from KHBG Reporting Station
Clear Clear  
Wind Chill: 58°   Ceiling: Unl
Heat Index: 58°   Visibility: 10mi
Dew Point: 39°   Wind: 7mph
Humidity: 49%   Direction: 360°N
Pressure: 30.21"   Gusts: NA
Location:  31.1996°N, 89.2694°W
Report Text: KHBG 172053Z AUTO 36006KT 10SM CLR 14/04 A3021 RMK AO2 SLP231 T01440039 55023
Loading
Personal Weather Stations






























Interactive Weather Map New forecast layout! Learn more

10-Day Weather Forecast

Advertisements
Track Severe Weather on mobile